createdAt,value
2023-05-14T00:01:18.339Z,102101.38
2023-05-14T00:03:45.030Z,102103.16
2023-05-14T00:06:11.569Z,102095.59
2023-05-14T00:08:37.976Z,102096.63
2023-05-14T00:11:04.738Z,102096.63
2023-05-14T00:13:31.122Z,102094.59
2023-05-14T00:15:57.620Z,102083.25
2023-05-14T00:18:24.260Z,102086.31
2023-05-14T00:20:54.603Z,102089.03
2023-05-14T00:23:22.039Z,102080.75
2023-05-14T00:25:48.843Z,102078.72
2023-05-14T00:28:15.339Z,102071.72
2023-05-14T00:30:42.092Z,102076.13
2023-05-14T00:33:08.753Z,102070.47
2023-05-14T00:35:35.919Z,102067.75
2023-05-14T00:38:03.349Z,102067.19
2023-05-14T00:40:30.249Z,102067.63
2023-05-14T00:42:56.827Z,102061.06
2023-05-14T00:45:23.404Z,102063.44
2023-05-14T00:47:50.510Z,102064.25
2023-05-14T00:50:18.160Z,102052.00
2023-05-14T00:52:44.759Z,102052.88
2023-05-14T00:55:16.364Z,102052.44
2023-05-14T00:57:43.513Z,102055.88
2023-05-14T01:00:10.660Z,102042.94
2023-05-14T01:02:37.307Z,102041.25
2023-05-14T01:05:04.469Z,102039.53
2023-05-14T01:07:46.948Z,102048.03
2023-05-14T01:10:45.901Z,102058.47
2023-05-14T01:13:39.401Z,102052.88
2023-05-14T01:16:12.119Z,102054.94
2023-05-14T01:18:40.884Z,102047.78
2023-05-14T01:21:33.115Z,102046.88
2023-05-14T01:23:59.592Z,102048.56
2023-05-14T01:26:26.223Z,102038.38
2023-05-14T01:28:56.295Z,102040.28
2023-05-14T01:31:28.008Z,102048.66
2023-05-14T01:33:56.913Z,102053.19
2023-05-14T01:36:23.630Z,102038.00
2023-05-14T01:38:51.472Z,102048.09
2023-05-14T01:41:19.432Z,102044.59
2023-05-14T01:43:46.002Z,102048.88
2023-05-14T01:46:12.407Z,102046.97
2023-05-14T01:48:38.912Z,102040.72
2023-05-14T01:51:05.468Z,102040.28
2023-05-14T01:53:34.320Z,102037.22
2023-05-14T01:56:01.291Z,102033.72
2023-05-14T01:58:27.836Z,102037.09
2023-05-14T02:00:54.239Z,102035.06
2023-05-14T02:03:20.854Z,102023.50
2023-05-14T02:05:47.409Z,102024.97
2023-05-14T02:08:13.825Z,102015.47
2023-05-14T02:10:40.418Z,102022.34
2023-05-14T02:13:07.070Z,102012.03
2023-05-14T02:15:33.459Z,102014.63
2023-05-14T02:17:59.889Z,102010.66
2023-05-14T02:20:26.372Z,102007.63
2023-05-14T02:22:52.803Z,102007.63
2023-05-14T02:25:19.215Z,102017.69
2023-05-14T02:27:46.216Z,102015.97
2023-05-14T02:30:12.982Z,102018.69
2023-05-14T02:32:39.492Z,102005.00
2023-05-14T02:35:06.716Z,102007.25
2023-05-14T02:37:34.754Z,102005.66
2023-05-14T02:40:01.470Z,102002.50
2023-05-14T02:42:28.135Z,102011.94
2023-05-14T02:44:54.652Z,102001.09
2023-05-14T02:47:21.307Z,102004.63
2023-05-14T02:49:47.820Z,102002.25
2023-05-14T02:52:14.343Z,101997.94
2023-05-14T02:54:40.841Z,102004.63
2023-05-14T02:57:07.309Z,101999.19
2023-05-14T02:59:34.239Z,101992.03
2023-05-14T03:02:01.111Z,101997.47
2023-05-14T03:04:28.006Z,101996.69
2023-05-14T03:06:54.432Z,102000.84
2023-05-14T03:09:21.042Z,102003.09
2023-05-14T03:11:47.518Z,101997.22
2023-05-14T03:14:13.877Z,101997.56
2023-05-14T03:16:42.289Z,101992.47
2023-05-14T03:19:09.862Z,101989.16
2023-05-14T03:21:36.677Z,101992.22
2023-05-14T03:24:03.291Z,102001.00
2023-05-14T03:26:29.712Z,101997.03
2023-05-14T03:28:56.063Z,101996.56
2023-05-14T03:31:22.805Z,101998.03
2023-05-14T03:33:49.429Z,101991.69
2023-05-14T03:36:15.934Z,102003.34
2023-05-14T03:38:42.360Z,101998.25
2023-05-14T03:41:08.946Z,102000.97
2023-05-14T03:43:35.568Z,101998.25
2023-05-14T03:46:02.053Z,101998.69
2023-05-14T03:48:28.823Z,101994.06
2023-05-14T03:50:55.468Z,101995.00
2023-05-14T03:53:22.021Z,101991.16
2023-05-14T03:55:48.549Z,101983.47
2023-05-14T03:58:14.998Z,101982.78
2023-05-14T04:00:42.536Z,101985.50
2023-05-14T04:03:09.654Z,101989.50
2023-05-14T04:05:36.298Z,101984.28
2023-05-14T04:08:02.905Z,101975.31
2023-05-14T04:10:29.855Z,101977.03
2023-05-14T04:12:56.494Z,101977.03
2023-05-14T04:15:23.196Z,101974.00
2023-05-14T04:17:49.706Z,101976.38
2023-05-14T04:20:16.287Z,101981.03
2023-05-14T04:22:42.718Z,101980.53
2023-05-14T04:25:09.357Z,101972.06
2023-05-14T04:27:35.715Z,101970.50
2023-05-14T04:30:02.303Z,101978.97
2023-05-14T04:32:30.189Z,101966.84
2023-05-14T04:34:56.932Z,101971.28
2023-05-14T04:37:23.621Z,101972.56
2023-05-14T04:39:50.179Z,101978.09
2023-05-14T04:42:16.781Z,101976.28
2023-05-14T04:44:43.183Z,101980.53
2023-05-14T04:47:09.622Z,101979.94
2023-05-14T04:49:36.208Z,101979.31
2023-05-14T04:52:02.855Z,101980.94
2023-05-14T04:54:29.382Z,101984.22
2023-05-14T04:56:56.011Z,101976.78
2023-05-14T04:59:22.770Z,101977.31
2023-05-14T05:01:49.380Z,101984.25
2023-05-14T05:04:16.208Z,101982.63
2023-05-14T05:06:42.819Z,101986.50
2023-05-14T05:09:09.918Z,101983.66
2023-05-14T05:11:36.402Z,101980.47
2023-05-14T05:14:03.006Z,101985.41
2023-05-14T05:16:29.432Z,101982.75
2023-05-14T05:18:56.142Z,101985.69
2023-05-14T05:21:22.762Z,101982.91
2023-05-14T05:23:49.144Z,101985.47
2023-05-14T05:26:15.787Z,101981.84
2023-05-14T05:28:42.185Z,101987.28
2023-05-14T05:31:08.945Z,101992.56
2023-05-14T05:33:35.961Z,101990.72
2023-05-14T05:36:02.851Z,101992.88
2023-05-14T05:38:29.497Z,101997.06
2023-05-14T05:40:56.157Z,101993.22
2023-05-14T05:43:22.797Z,101979.50
2023-05-14T05:45:49.227Z,101984.59
2023-05-14T05:48:15.691Z,101987.38
2023-05-14T05:50:44.509Z,101985.59
2023-05-14T05:53:11.185Z,102006.44
2023-05-14T05:55:37.798Z,102000.88
2023-05-14T05:58:04.628Z,101998.78
2023-05-14T06:00:31.467Z,101992.69
2023-05-14T06:02:58.088Z,101994.94
2023-05-14T06:05:24.639Z,102009.22
2023-05-14T06:07:51.259Z,102006.53
2023-05-14T06:10:17.671Z,101999.75
2023-05-14T06:12:44.104Z,101996.59
2023-05-14T06:15:12.276Z,101991.44
2023-05-14T06:17:39.264Z,102006.78
2023-05-14T06:20:07.833Z,102003.69
2023-05-14T06:22:34.774Z,102000.34
2023-05-14T06:25:01.148Z,101998.19
2023-05-14T06:27:27.664Z,102008.34
2023-05-14T06:29:54.089Z,102015.28
2023-05-14T06:32:20.689Z,102021.03
2023-05-14T06:34:47.641Z,102017.09
2023-05-14T06:37:14.285Z,102005.88
2023-05-14T06:39:44.127Z,102005.09
2023-05-14T06:42:10.699Z,102003.19
2023-05-14T06:44:37.064Z,101993.84
2023-05-14T06:47:03.648Z,102007.25
2023-05-14T06:49:30.279Z,102007.03
2023-05-14T06:51:56.757Z,101997.53
2023-05-14T06:54:23.158Z,102002.81
2023-05-14T06:56:49.755Z,101993.75
2023-05-14T06:59:16.145Z,101992.56
2023-05-14T07:01:42.904Z,101993.44
2023-05-14T07:04:09.454Z,101984.44
2023-05-14T07:06:35.981Z,101988.63
2023-05-14T07:09:03.383Z,101989.25
2023-05-14T07:11:30.198Z,101995.53
2023-05-14T07:13:56.634Z,101994.44
2023-05-14T07:16:30.454Z,101989.34
2023-05-14T07:18:56.905Z,102000.75
2023-05-14T07:21:23.348Z,101991.31
2023-05-14T07:23:49.937Z,101993.28
2023-05-14T07:26:16.329Z,101989.66
2023-05-14T07:28:42.832Z,101995.19
2023-05-14T07:31:09.561Z,101985.41
2023-05-14T07:33:36.576Z,101982.56
2023-05-14T07:36:03.170Z,101989.47
2023-05-14T07:38:29.777Z,101989.50
2023-05-14T07:40:56.291Z,101985.72
2023-05-14T07:43:22.878Z,101985.84
2023-05-14T07:45:49.465Z,101985.78
2023-05-14T07:48:16.076Z,101975.69
2023-05-14T07:50:42.532Z,101974.59
2023-05-14T07:53:09.030Z,101972.38
2023-05-14T07:55:35.489Z,101972.53
2023-05-14T07:58:02.085Z,101978.59
2023-05-14T08:00:28.659Z,101978.13
2023-05-14T08:02:55.731Z,101986.53
2023-05-14T08:05:22.464Z,101974.16
2023-05-14T08:07:48.908Z,101975.81
2023-05-14T08:10:15.336Z,101990.84
2023-05-14T08:12:42.715Z,101976.38
2023-05-14T08:15:09.837Z,101972.69
2023-05-14T08:17:36.482Z,101981.59
2023-05-14T08:20:03.226Z,101985.13
2023-05-14T08:22:29.739Z,101979.88
2023-05-14T08:24:56.115Z,101977.22
2023-05-14T08:27:23.120Z,101979.84
2023-05-14T08:29:49.556Z,101976.88
2023-05-14T08:32:23.439Z,101978.84
2023-05-14T08:34:51.534Z,101972.09
2023-05-14T08:37:18.453Z,101971.56
2023-05-14T08:39:46.529Z,101959.47
2023-05-14T08:42:13.752Z,101960.63
2023-05-14T08:44:51.971Z,101967.56
2023-05-14T08:47:21.575Z,101966.22
2023-05-14T08:49:54.962Z,101950.81
2023-05-14T08:52:23.086Z,101948.59
2023-05-14T08:54:51.161Z,101948.25
2023-05-14T08:57:18.894Z,101956.06
2023-05-14T08:59:45.308Z,101954.84
2023-05-14T09:02:15.108Z,101946.75
2023-05-14T09:04:42.516Z,101949.84
2023-05-14T09:07:09.327Z,101945.34
2023-05-14T09:09:36.622Z,101944.72
2023-05-14T09:12:03.318Z,101943.09
2023-05-14T09:14:29.880Z,101931.78
2023-05-14T09:16:57.040Z,101936.47
2023-05-14T09:19:23.973Z,101939.72
2023-05-14T09:21:50.544Z,101932.34
2023-05-14T09:24:21.412Z,101932.00
2023-05-14T09:26:51.129Z,101927.78
2023-05-14T09:29:17.870Z,101928.91
2023-05-14T09:31:44.790Z,101924.56
2023-05-14T09:34:11.530Z,101930.78
2023-05-14T09:36:38.345Z,101929.34
2023-05-14T09:39:04.908Z,101917.56
2023-05-14T09:41:31.491Z,101927.78
2023-05-14T09:43:58.007Z,101921.91
2023-05-14T09:46:27.342Z,101911.69
2023-05-14T09:48:56.027Z,101917.78
2023-05-14T09:51:22.745Z,101916.41
2023-05-14T09:53:52.555Z,101914.03
2023-05-14T09:56:19.184Z,101911.28
2023-05-14T09:58:45.733Z,101921.88
2023-05-14T10:01:13.165Z,101917.34
2023-05-14T10:03:39.821Z,101917.34
2023-05-14T10:06:06.930Z,101916.13
2023-05-14T10:08:35.885Z,101904.44
2023-05-14T10:11:08.405Z,101905.53
2023-05-14T10:13:41.699Z,101906.03
2023-05-14T10:16:15.619Z,101903.56
2023-05-14T10:18:46.740Z,101905.66
2023-05-14T10:21:14.706Z,101904.09
2023-05-14T10:23:41.673Z,101893.88
2023-05-14T10:26:09.397Z,101900.97
2023-05-14T10:28:36.830Z,101894.81
2023-05-14T10:31:03.552Z,101890.25
2023-05-14T10:33:30.133Z,101893.19
2023-05-14T10:35:57.732Z,101891.38
2023-05-14T10:38:34.030Z,101887.63
2023-05-14T10:41:11.710Z,101893.75
2023-05-14T10:43:39.873Z,101886.72
2023-05-14T10:46:08.094Z,101890.50
2023-05-14T10:48:36.586Z,101871.50
2023-05-14T10:51:03.237Z,101866.50
2023-05-14T10:53:43.672Z,101869.84
2023-05-14T10:56:14.289Z,101874.72
2023-05-14T10:58:42.944Z,101870.31
2023-05-14T11:01:11.686Z,101861.97
2023-05-14T11:03:42.978Z,101861.06
2023-05-14T11:06:11.457Z,101866.69
2023-05-14T11:08:38.975Z,101858.22
2023-05-14T11:11:06.262Z,101862.91
2023-05-14T11:13:34.419Z,101850.59
2023-05-14T11:16:15.089Z,101859.25
2023-05-14T11:18:48.160Z,101858.88
2023-05-14T11:21:14.918Z,101851.41
2023-05-14T11:23:41.266Z,101851.66
2023-05-14T11:26:07.857Z,101851.16
2023-05-14T11:28:34.347Z,101853.38
2023-05-14T11:31:01.197Z,101851.78
2023-05-14T11:33:29.227Z,101839.09
2023-05-14T11:35:56.046Z,101845.31
2023-05-14T11:38:22.721Z,101841.91
2023-05-14T11:40:56.879Z,101840.31
2023-05-14T11:43:23.962Z,101831.03
2023-05-14T11:45:54.298Z,101833.41
2023-05-14T11:48:21.980Z,101825.81
2023-05-14T11:50:49.840Z,101827.94
2023-05-14T11:53:20.890Z,101823.34
2023-05-14T11:55:47.900Z,101826.97
2023-05-14T11:58:15.835Z,101820.13
2023-05-14T12:00:44.863Z,101828.81
2023-05-14T12:03:12.301Z,101821.13
2023-05-14T12:05:39.593Z,101827.19
2023-05-14T12:08:30.228Z,101816.53
2023-05-14T12:10:59.501Z,101812.97
2023-05-14T12:13:33.059Z,101818.84
2023-05-14T12:16:02.165Z,101805.34
2023-05-14T12:18:33.618Z,101810.16
2023-05-14T12:21:04.678Z,101798.56
2023-05-14T12:23:31.847Z,101798.13
2023-05-14T12:26:03.448Z,101797.81
2023-05-14T12:28:30.100Z,101803.03
2023-05-14T12:30:57.428Z,101803.03
2023-05-14T12:33:24.391Z,101792.88
2023-05-14T12:35:51.013Z,101789.66
2023-05-14T12:38:17.631Z,101792.09
2023-05-14T12:40:44.199Z,101784.41
2023-05-14T12:43:10.783Z,101784.53
2023-05-14T12:45:37.264Z,101784.78
2023-05-14T12:48:03.844Z,101778.16
2023-05-14T12:50:30.443Z,101778.34
2023-05-14T12:52:57.836Z,101784.59
2023-05-14T12:55:24.480Z,101778.00
2023-05-14T12:57:50.974Z,101767.19
2023-05-14T13:00:17.734Z,101774.16
2023-05-14T13:02:44.309Z,101762.91
2023-05-14T13:05:11.823Z,101766.25
2023-05-14T13:07:39.027Z,101765.03
2023-05-14T13:10:06.089Z,101774.16
2023-05-14T13:12:32.933Z,101773.97
2023-05-14T13:15:00.732Z,101771.41
2023-05-14T13:17:27.332Z,101763.47
2023-05-14T13:19:53.755Z,101769.25
2023-05-14T13:22:20.187Z,101764.78
2023-05-14T13:24:46.798Z,101764.16
2023-05-14T13:27:13.369Z,101757.41
2023-05-14T13:29:40.016Z,101757.81
2023-05-14T13:32:06.796Z,101755.16
2023-05-14T13:34:33.188Z,101753.28
2023-05-14T13:36:59.599Z,101752.31
2023-05-14T13:39:27.289Z,101747.22
2023-05-14T13:41:57.159Z,101745.78
2023-05-14T13:44:24.343Z,101749.00
2023-05-14T13:46:51.015Z,101746.56
2023-05-14T13:49:17.676Z,101742.44
2023-05-14T13:51:44.402Z,101737.84
2023-05-14T13:54:10.845Z,101736.88
2023-05-14T13:56:37.369Z,101738.72
2023-05-14T13:59:06.482Z,101727.28
2023-05-14T14:01:33.320Z,101727.59
2023-05-14T14:04:00.442Z,101730.06
2023-05-14T14:06:29.941Z,101721.09
2023-05-14T14:08:56.409Z,101719.75
2023-05-14T14:11:22.906Z,101722.59
2023-05-14T14:13:49.359Z,101718.16
2023-05-14T14:16:16.394Z,101724.47
2023-05-14T14:18:43.264Z,101719.22
2023-05-14T14:21:10.413Z,101715.34
2023-05-14T14:23:36.945Z,101714.16
2023-05-14T14:26:03.978Z,101711.38
2023-05-14T14:28:30.714Z,101705.03
2023-05-14T14:30:57.206Z,101705.00
2023-05-14T14:33:23.659Z,101711.19
2023-05-14T14:35:50.364Z,101707.84
2023-05-14T14:38:16.755Z,101701.28
2023-05-14T14:40:43.320Z,101705.91
2023-05-14T14:43:09.813Z,101699.72
2023-05-14T14:45:36.364Z,101699.91
2023-05-14T14:48:33.975Z,101701.00
2023-05-14T14:51:03.688Z,101698.72
2023-05-14T14:53:31.087Z,101702.59
2023-05-14T14:55:57.793Z,101695.13
2023-05-14T14:58:24.875Z,101695.69
2023-05-14T15:00:52.769Z,101702.00
2023-05-14T15:03:19.625Z,101693.53
2023-05-14T15:05:46.176Z,101694.75
2023-05-14T15:08:12.905Z,101687.88
2023-05-14T15:10:41.154Z,101694.09
2023-05-14T15:13:08.435Z,101699.81
2023-05-14T15:15:35.813Z,101692.44
2023-05-14T15:18:03.690Z,101684.50
2023-05-14T15:20:30.546Z,101692.56
2023-05-14T15:22:57.078Z,101688.34
2023-05-14T15:25:24.818Z,101682.09
2023-05-14T15:27:51.690Z,101679.69
2023-05-14T15:30:18.284Z,101685.28
2023-05-14T15:32:45.486Z,101675.88
2023-05-14T15:35:12.655Z,101674.56
2023-05-14T15:37:41.400Z,101674.59
2023-05-14T15:40:09.190Z,101675.88
2023-05-14T15:42:41.974Z,101667.56
2023-05-14T15:45:10.561Z,101669.34
2023-05-14T15:47:37.449Z,101664.16
2023-05-14T15:50:04.513Z,101673.13
2023-05-14T15:52:31.151Z,101666.56
2023-05-14T15:54:59.476Z,101659.31
2023-05-14T15:57:26.389Z,101656.28
2023-05-14T15:59:52.936Z,101656.50
2023-05-14T16:02:19.450Z,101656.31
2023-05-14T16:04:45.958Z,101655.22
2023-05-14T16:07:13.268Z,101659.72
2023-05-14T16:09:39.742Z,101659.38
2023-05-14T16:12:06.809Z,101666.59
2023-05-14T16:14:34.669Z,101661.28
2023-05-14T16:17:02.062Z,101665.13
2023-05-14T16:19:28.698Z,101678.84
2023-05-14T16:21:55.124Z,101677.34
2023-05-14T16:24:21.713Z,101671.56
2023-05-14T16:26:48.247Z,101668.56
2023-05-14T16:29:14.697Z,101673.41
2023-05-14T16:31:41.245Z,101668.44
2023-05-14T16:34:07.681Z,101668.50
2023-05-14T16:36:34.316Z,101667.31
2023-05-14T16:41:30.322Z,101661.28
2023-05-14T16:43:57.306Z,101659.84
2023-05-14T16:46:23.929Z,101670.22
2023-05-14T16:48:50.853Z,101678.59
2023-05-14T16:51:17.290Z,101671.25
2023-05-14T16:53:43.892Z,101680.81
2023-05-14T16:56:11.041Z,101681.66
2023-05-14T16:58:37.598Z,101684.16
2023-05-14T17:01:04.183Z,101687.06
2023-05-14T17:03:30.720Z,101691.06
2023-05-14T17:05:57.173Z,101692.41
2023-05-14T17:08:23.823Z,101694.50
2023-05-14T17:10:50.436Z,101694.97
2023-05-14T17:13:17.085Z,101688.00
2023-05-14T17:15:43.802Z,101690.91
2023-05-14T17:18:12.124Z,101686.22
2023-05-14T17:20:38.757Z,101691.75
2023-05-14T17:23:05.449Z,101688.66
2023-05-14T17:25:33.507Z,101689.16
2023-05-14T17:28:00.434Z,101691.94
2023-05-14T17:30:26.977Z,101694.34
2023-05-14T17:32:53.716Z,101687.00
2023-05-14T17:35:20.396Z,101691.81
2023-05-14T17:37:46.834Z,101687.97
2023-05-14T17:40:13.359Z,101687.66
2023-05-14T17:42:39.779Z,101684.16
2023-05-14T17:45:07.119Z,101693.22
2023-05-14T17:47:44.392Z,101684.22
2023-05-14T17:50:11.203Z,101683.06
2023-05-14T17:52:37.807Z,101683.03
2023-05-14T17:55:04.522Z,101690.88
2023-05-14T17:57:31.051Z,101701.06
2023-05-14T17:59:57.586Z,101695.59
2023-05-14T18:02:24.105Z,101709.72
2023-05-14T18:04:50.656Z,101708.94
2023-05-14T18:07:18.701Z,101709.69
2023-05-14T18:09:45.268Z,101714.34
2023-05-14T18:12:11.641Z,101709.25
2023-05-14T18:14:38.134Z,101717.09
2023-05-14T18:17:04.910Z,101709.63
2023-05-14T18:19:31.449Z,101709.56
2023-05-14T18:21:57.833Z,101715.81
2023-05-14T18:24:24.360Z,101718.53
2023-05-14T18:26:50.885Z,101719.28
2023-05-14T18:29:17.331Z,101720.03
2023-05-14T18:31:44.004Z,101722.31
2023-05-14T18:34:10.922Z,101721.81
2023-05-14T18:36:37.800Z,101736.59
2023-05-14T18:39:04.323Z,101735.38
2023-05-14T18:41:30.866Z,101730.94
2023-05-14T18:43:58.046Z,101726.56
2023-05-14T18:46:24.924Z,101732.41
2023-05-14T18:48:51.344Z,101729.97
2023-05-14T18:51:17.953Z,101735.81
2023-05-14T18:53:44.526Z,101740.84
2023-05-14T18:56:11.388Z,101739.56
2023-05-14T18:58:38.112Z,101740.72
2023-05-14T19:01:04.826Z,101746.47
2023-05-14T19:03:31.538Z,101746.41
2023-05-14T19:05:58.200Z,101752.22
2023-05-14T19:08:24.766Z,101740.03
2023-05-14T19:10:51.765Z,101746.66
2023-05-14T19:13:18.338Z,101748.22
2023-05-14T19:15:51.404Z,101745.84
2023-05-14T19:18:17.888Z,101744.56
2023-05-14T19:20:46.232Z,101743.97
2023-05-14T19:23:13.245Z,101747.09
2023-05-14T19:25:40.949Z,101741.97
2023-05-14T19:28:07.535Z,101737.16
2023-05-14T19:30:34.000Z,101734.56
2023-05-14T19:33:00.969Z,101741.03
2023-05-14T19:35:27.575Z,101740.88
2023-05-14T19:37:54.277Z,101742.13
2023-05-14T19:40:20.914Z,101738.84
2023-05-14T19:42:47.545Z,101747.84
2023-05-14T19:45:14.137Z,101736.44
2023-05-14T19:47:43.624Z,101733.66
2023-05-14T19:50:10.681Z,101748.09
2023-05-14T19:52:37.285Z,101747.66
2023-05-14T19:55:04.956Z,101742.13
2023-05-14T19:57:31.593Z,101740.00
2023-05-14T19:59:58.237Z,101740.75
2023-05-14T20:02:24.910Z,101741.47
2023-05-14T20:04:51.640Z,101745.34
2023-05-14T20:07:18.228Z,101740.22
2023-05-14T20:09:44.728Z,101735.59
2023-05-14T20:12:13.120Z,101740.22
2023-05-14T20:14:41.082Z,101743.34
2023-05-14T20:17:07.588Z,101736.31
2023-05-14T20:19:34.819Z,101745.22
2023-05-14T20:22:01.383Z,101742.78
2023-05-14T20:24:28.548Z,101740.00
2023-05-14T20:26:55.009Z,101732.47
2023-05-14T20:29:21.588Z,101733.47
2023-05-14T20:31:48.107Z,101734.59
2023-05-14T20:34:14.718Z,101732.94
2023-05-14T20:36:47.241Z,101728.19
2023-05-14T20:39:15.991Z,101734.75
2023-05-14T20:41:42.532Z,101728.34
2023-05-14T20:44:08.896Z,101730.25
2023-05-14T20:46:35.283Z,101719.25
2023-05-14T20:49:02.335Z,101723.06
2023-05-14T20:51:29.035Z,101724.50
2023-05-14T20:53:55.414Z,101724.28
2023-05-14T20:56:22.657Z,101724.13
2023-05-14T20:58:49.197Z,101721.69
2023-05-14T21:01:15.831Z,101711.16
2023-05-14T21:03:42.570Z,101721.25
2023-05-14T21:06:09.092Z,101718.13
2023-05-14T21:08:37.572Z,101714.97
2023-05-14T21:11:04.018Z,101710.19
2023-05-14T21:13:31.702Z,101704.31
2023-05-14T21:16:00.296Z,101705.09
2023-05-14T21:18:30.705Z,101712.41
2023-05-14T21:20:57.483Z,101716.97
2023-05-14T21:23:24.292Z,101714.97
2023-05-14T21:25:51.133Z,101723.78
2023-05-14T21:28:17.635Z,101713.19
2023-05-14T21:30:44.349Z,101720.88
2023-05-14T21:33:10.829Z,101718.53
2023-05-14T21:35:37.410Z,101720.47
2023-05-14T21:38:04.054Z,101716.53
2023-05-14T21:40:30.950Z,101718.00
2023-05-14T21:42:57.463Z,101709.75
2023-05-14T21:45:24.043Z,101706.63
2023-05-14T21:47:50.848Z,101696.78
2023-05-14T21:50:17.306Z,101696.63
2023-05-14T21:52:43.710Z,101696.88
2023-05-14T21:55:10.460Z,101701.47
2023-05-14T21:57:36.973Z,101701.03
2023-05-14T22:00:07.981Z,101697.50
2023-05-14T22:02:34.404Z,101696.81
2023-05-14T22:05:01.423Z,101699.97
2023-05-14T22:07:28.473Z,101699.19
2023-05-14T22:09:54.880Z,101687.88
2023-05-14T22:12:21.353Z,101692.88
2023-05-14T22:14:47.937Z,101681.91
2023-05-14T22:17:14.558Z,101680.66
2023-05-14T22:19:41.056Z,101691.81
2023-05-14T22:22:07.447Z,101683.13
2023-05-14T22:24:33.858Z,101688.50
2023-05-14T22:27:00.414Z,101687.19
2023-05-14T22:29:26.964Z,101685.88
2023-05-14T22:31:53.400Z,101682.59
2023-05-14T22:34:20.053Z,101682.88
2023-05-14T22:36:46.493Z,101686.31
2023-05-14T22:39:13.683Z,101676.47
2023-05-14T22:41:40.389Z,101681.91
2023-05-14T22:44:06.796Z,101671.38
2023-05-14T22:46:33.385Z,101670.25
2023-05-14T22:49:00.153Z,101661.28
2023-05-14T22:51:26.598Z,101666.03
2023-05-14T22:53:52.984Z,101667.63
2023-05-14T22:56:20.511Z,101660.94
2023-05-14T22:58:47.641Z,101661.75
2023-05-14T23:01:14.154Z,101648.50
2023-05-14T23:03:40.573Z,101651.22
2023-05-14T23:06:07.327Z,101650.06
2023-05-14T23:08:33.735Z,101647.00
2023-05-14T23:11:00.153Z,101643.16
2023-05-14T23:13:26.927Z,101650.50
2023-05-14T23:15:53.377Z,101651.22
2023-05-14T23:18:19.948Z,101656.19
2023-05-14T23:20:46.424Z,101660.41
2023-05-14T23:23:13.153Z,101656.09
2023-05-14T23:25:39.714Z,101657.16
2023-05-14T23:28:06.416Z,101648.91
2023-05-14T23:30:32.872Z,101638.38
2023-05-14T23:32:59.539Z,101640.28
2023-05-14T23:35:26.303Z,101644.50
2023-05-14T23:37:55.308Z,101633.88
2023-05-14T23:40:22.036Z,101633.38
2023-05-14T23:42:48.465Z,101626.50
2023-05-14T23:45:15.078Z,101618.69
2023-05-14T23:47:41.695Z,101616.75
2023-05-14T23:50:08.547Z,101607.03
2023-05-14T23:52:35.114Z,101614.41
2023-05-14T23:55:01.799Z,101611.59
2023-05-14T23:57:28.574Z,101608.00
2023-05-14T23:59:55.462Z,101606.44
